Terminal Aerodrome Forecast
Issued by NWS

Home | Current Version | Previous Version | Text Only | Print | Product List | Glossary On
Versions: 1 2 3 4 5 6 7 8 9 10 11 12 13 14 15 16 17 18 19 20 21 22 23 24 25 26 27 28 29 30 31 32 33 34 35 36 37 38 39 40 41 42 43 44 45 46 47 48 49 50
000
FTUS45 KBOU 260529
TAFBJC
TAF
KBJC 260529Z 2606/2706 21007KT P6SM FEW120 SCT200
     FM260900 25007KT P6SM FEW120 SCT200
     FM261200 30005KT P6SM FEW120 SCT200
     FM261500 03008KT P6SM FEW100 SCT220
     FM262000 10007KT P6SM SCT080 BKN120 PROB30 2621/2701 VRB20G35KT
      -TSRA BKN070CB
     FM270100 18011KT P6SM SCT080 BKN120
     FM270400 24007KT P6SM FEW120 BKN200=

USA.gov is the U.S. government's official web portal to all federal, state and local government web resources and services.